Terminal Aerodrome Forecast
Issued by NWS

Home | Current Version | Previous Version | Text Only | Print | Product List | Glossary On
Versions: 1 2 3 4 5 6 7 8 9 10 11 12 13 14 15
000
FTUS44 KLIX 062331
TAFGPT
TAF
KGPT 062331Z 0700/0724 16007KT P6SM SCT250
     FM070800 VRB03KT P6SM FEW250
     FM071430 19009KT P6SM SCT045=

USA.gov is the U.S. government's official web portal to all federal, state and local government web resources and services.